createdAt,value
2019-04-07T00:00:10.588Z,980.71
2019-04-07T00:01:10.521Z,980.73
2019-04-07T00:02:10.518Z,980.72
2019-04-07T00:03:10.690Z,980.69
2019-04-07T00:04:10.887Z,980.71
2019-04-07T00:05:14.178Z,980.76
2019-04-07T00:06:10.924Z,980.73
2019-04-07T00:07:10.445Z,980.78
2019-04-07T00:08:10.452Z,980.74
2019-04-07T00:09:10.825Z,980.81
2019-04-07T00:10:11.057Z,980.75
2019-04-07T00:11:10.639Z,980.74
2019-04-07T00:12:11.084Z,980.77
2019-04-07T00:13:10.696Z,980.73
2019-04-07T00:14:11.071Z,980.75
2019-04-07T00:15:10.461Z,980.75
2019-04-07T00:16:10.350Z,980.76
2019-04-07T00:17:10.544Z,980.71
2019-04-07T00:18:10.401Z,980.70
2019-04-07T00:19:10.335Z,980.79
2019-04-07T00:20:10.297Z,980.74
2019-04-07T00:21:10.305Z,980.73
2019-04-07T00:22:10.301Z,980.74
2019-04-07T00:23:10.686Z,980.71
2019-04-07T00:24:10.308Z,980.68
2019-04-07T00:25:10.577Z,980.71
2019-04-07T00:26:10.252Z,980.65
2019-04-07T00:27:10.258Z,980.68
2019-04-07T00:28:10.222Z,980.67
2019-04-07T00:29:10.236Z,980.59
2019-04-07T00:30:10.201Z,980.61
2019-04-07T00:31:10.191Z,980.72
2019-04-07T00:32:10.175Z,980.67
2019-04-07T00:33:10.171Z,980.72
2019-04-07T00:34:10.796Z,980.65
2019-04-07T00:35:21.588Z,980.64
2019-04-07T00:36:11.200Z,980.74
2019-04-07T00:37:10.648Z,980.74
2019-04-07T00:38:10.122Z,980.75
2019-04-07T00:39:10.536Z,980.75
2019-04-07T00:40:10.108Z,980.76
2019-04-07T00:41:10.082Z,980.75
2019-04-07T00:42:10.479Z,980.76
2019-04-07T00:43:10.090Z,980.81
2019-04-07T00:44:10.074Z,980.74
2019-04-07T00:45:10.060Z,980.77
2019-04-07T00:46:10.027Z,980.83
2019-04-07T00:47:10.571Z,980.80
2019-04-07T00:48:10.554Z,980.84
2019-04-07T00:49:10.438Z,980.74
2019-04-07T00:50:09.978Z,980.83
2019-04-07T00:51:10.225Z,980.75
2019-04-07T00:52:09.993Z,980.75
2019-04-07T00:53:09.960Z,980.76
2019-04-07T00:54:09.993Z,980.69
2019-04-07T00:55:09.994Z,980.73
2019-04-07T00:56:10.336Z,980.65
2019-04-07T00:57:09.894Z,980.64
2019-04-07T00:58:09.966Z,980.65
2019-04-07T00:59:09.992Z,980.59
2019-04-07T01:00:10.462Z,980.62
2019-04-07T01:01:09.868Z,980.61
2019-04-07T01:02:10.590Z,980.61
2019-04-07T01:03:10.608Z,980.63
2019-04-07T01:04:09.959Z,980.58
2019-04-07T01:05:10.465Z,980.62
2019-04-07T01:06:09.908Z,980.59
2019-04-07T01:07:10.251Z,980.60
2019-04-07T01:08:09.778Z,980.59
2019-04-07T01:09:09.819Z,980.57
2019-04-07T01:10:09.769Z,980.60
2019-04-07T01:11:09.749Z,980.62
2019-04-07T01:12:10.281Z,980.63
2019-04-07T01:13:09.730Z,980.61
2019-04-07T01:14:10.306Z,980.63
2019-04-07T01:15:09.923Z,980.57
2019-04-07T01:16:09.810Z,980.57
2019-04-07T01:17:09.697Z,980.59
2019-04-07T01:18:09.978Z,980.63
2019-04-07T01:19:09.996Z,980.54
2019-04-07T01:20:09.682Z,980.59
2019-04-07T01:21:09.645Z,980.59
2019-04-07T01:22:09.980Z,980.61
2019-04-07T01:23:09.630Z,980.64
2019-04-07T01:24:09.852Z,980.64
2019-04-07T01:25:10.411Z,980.62
2019-04-07T01:26:09.751Z,980.59
2019-04-07T01:27:09.590Z,980.62
2019-04-07T01:28:09.808Z,980.59
2019-04-07T01:29:10.180Z,980.61
2019-04-07T01:30:09.701Z,980.69
2019-04-07T01:31:09.696Z,980.61
2019-04-07T01:32:10.201Z,980.67
2019-04-07T01:33:09.571Z,980.72
2019-04-07T01:34:09.585Z,980.66
2019-04-07T01:35:10.086Z,980.65
2019-04-07T01:36:09.533Z,980.70
2019-04-07T01:37:09.906Z,980.69
2019-04-07T01:38:09.469Z,980.70
2019-04-07T01:39:09.485Z,980.71
2019-04-07T01:40:09.451Z,980.71
2019-04-07T01:41:09.824Z,980.72
2019-04-07T01:42:09.440Z,980.68
2019-04-07T01:43:09.396Z,980.72
2019-04-07T01:44:10.148Z,980.66
2019-04-07T01:45:09.391Z,980.73
2019-04-07T01:46:09.855Z,980.77
2019-04-07T01:47:09.379Z,980.74
2019-04-07T01:48:09.352Z,980.76
2019-04-07T01:49:10.842Z,980.73
2019-04-07T01:50:09.377Z,980.70
2019-04-07T01:51:09.331Z,980.79
2019-04-07T01:52:09.318Z,980.77
2019-04-07T01:53:10.012Z,980.80
2019-04-07T01:54:10.111Z,980.82
2019-04-07T01:55:09.298Z,980.76
2019-04-07T01:56:09.276Z,980.77
2019-04-07T01:57:09.293Z,980.75
2019-04-07T01:58:09.846Z,980.73
2019-04-07T01:59:10.580Z,980.73
2019-04-07T02:00:09.531Z,980.72
2019-04-07T02:01:09.213Z,980.74
2019-04-07T02:02:09.335Z,980.71
2019-04-07T02:03:09.970Z,980.72
2019-04-07T02:04:09.356Z,980.70
2019-04-07T02:05:09.702Z,980.67
2019-04-07T02:06:09.504Z,980.66
2019-04-07T02:07:09.162Z,980.68
2019-04-07T02:08:09.413Z,980.64
2019-04-07T02:09:09.467Z,980.65
2019-04-07T02:10:09.698Z,980.69
2019-04-07T02:11:09.102Z,980.67
2019-04-07T02:12:09.466Z,980.66
2019-04-07T02:13:09.095Z,980.69
2019-04-07T02:14:09.093Z,980.68
2019-04-07T02:15:09.722Z,980.66
2019-04-07T02:16:09.191Z,980.68
2019-04-07T02:17:09.742Z,980.61
2019-04-07T02:18:09.037Z,980.69
2019-04-07T02:19:09.586Z,980.66
2019-04-07T02:20:09.059Z,980.69
2019-04-07T02:21:09.611Z,980.67
2019-04-07T02:22:08.988Z,980.67
2019-04-07T02:23:09.558Z,980.63
2019-04-07T02:24:09.117Z,980.63
2019-04-07T02:25:09.732Z,980.64
2019-04-07T02:26:08.954Z,980.68
2019-04-07T02:27:08.935Z,980.60
2019-04-07T02:28:08.929Z,980.66
2019-04-07T02:29:09.183Z,980.64
2019-04-07T02:30:09.996Z,980.64
2019-04-07T02:31:09.664Z,980.66
2019-04-07T02:32:09.747Z,980.70
2019-04-07T02:33:08.888Z,980.63
2019-04-07T02:34:08.878Z,980.64
2019-04-07T02:35:08.895Z,980.65
2019-04-07T02:36:17.926Z,980.63
2019-04-07T02:37:09.959Z,980.66
2019-04-07T02:38:08.805Z,980.63
2019-04-07T02:39:09.222Z,980.65
2019-04-07T02:40:09.565Z,980.64
2019-04-07T02:41:09.079Z,980.60
2019-04-07T02:42:08.864Z,980.55
2019-04-07T02:43:08.776Z,980.56
2019-04-07T02:44:09.311Z,980.58
2019-04-07T02:45:09.116Z,980.49
2019-04-07T02:46:09.616Z,980.49
2019-04-07T02:47:09.768Z,980.52
2019-04-07T02:48:08.709Z,980.54
2019-04-07T02:49:08.710Z,980.55
2019-04-07T02:50:08.876Z,980.52
2019-04-07T02:51:09.447Z,980.56
2019-04-07T02:52:09.123Z,980.55
2019-04-07T02:53:09.493Z,980.50
2019-04-07T02:54:09.308Z,980.52
2019-04-07T02:55:08.658Z,980.54
2019-04-07T02:56:08.630Z,980.51
2019-04-07T02:57:08.610Z,980.60
2019-04-07T02:58:08.757Z,980.60
2019-04-07T02:59:08.595Z,980.54
2019-04-07T03:00:08.685Z,980.56
2019-04-07T03:01:09.566Z,980.58
2019-04-07T03:02:08.566Z,980.51
2019-04-07T03:03:08.801Z,980.49
2019-04-07T03:04:09.455Z,980.52
2019-04-07T03:05:08.542Z,980.52
2019-04-07T03:06:08.845Z,980.53
2019-04-07T03:07:08.521Z,980.55
2019-04-07T03:08:09.195Z,980.54
2019-04-07T03:09:08.857Z,980.55
2019-04-07T03:10:08.940Z,980.49
2019-04-07T03:11:08.465Z,980.53
2019-04-07T03:12:08.468Z,980.55
2019-04-07T03:13:09.247Z,980.53
2019-04-07T03:14:09.084Z,980.57
2019-04-07T03:15:09.111Z,980.63
2019-04-07T03:16:08.439Z,980.58
2019-04-07T03:17:08.426Z,980.63
2019-04-07T03:18:08.886Z,980.64
2019-04-07T03:19:08.789Z,980.61
2019-04-07T03:20:08.697Z,980.66
2019-04-07T03:21:08.368Z,980.65
2019-04-07T03:22:08.591Z,980.67
2019-04-07T03:23:09.292Z,980.64
2019-04-07T03:24:09.305Z,980.66
2019-04-07T03:25:08.350Z,980.67
2019-04-07T03:26:08.308Z,980.67
2019-04-07T03:27:08.282Z,980.68
2019-04-07T03:28:08.764Z,980.67
2019-04-07T03:29:08.557Z,980.66
2019-04-07T03:30:09.326Z,980.68
2019-04-07T03:31:09.659Z,980.75
2019-04-07T03:32:10.325Z,980.69
2019-04-07T03:33:11.182Z,980.72
2019-04-07T03:34:11.596Z,980.72
2019-04-07T03:35:09.672Z,980.71
2019-04-07T03:36:11.501Z,980.76
2019-04-07T03:37:22.970Z,980.78
2019-04-07T03:38:09.167Z,980.74
2019-04-07T03:39:08.752Z,980.72
2019-04-07T03:40:08.325Z,980.73
2019-04-07T03:41:08.420Z,980.70
2019-04-07T03:42:08.626Z,980.70
2019-04-07T03:43:09.234Z,980.68
2019-04-07T03:44:08.102Z,980.68
2019-04-07T03:45:08.267Z,980.63
2019-04-07T03:46:08.200Z,980.62
2019-04-07T03:47:08.819Z,980.63
2019-04-07T03:48:08.470Z,980.62
2019-04-07T03:49:08.108Z,980.63
2019-04-07T03:50:08.878Z,980.56
2019-04-07T03:51:09.100Z,980.60
2019-04-07T03:52:08.020Z,980.54
2019-04-07T03:53:08.232Z,980.60
2019-04-07T03:54:08.838Z,980.59
2019-04-07T03:55:08.660Z,980.55
2019-04-07T03:56:08.209Z,980.60
2019-04-07T03:57:08.865Z,980.61
2019-04-07T03:58:08.200Z,980.58
2019-04-07T03:59:07.929Z,980.59
2019-04-07T04:00:08.504Z,980.60
2019-04-07T04:01:08.186Z,980.58
2019-04-07T04:02:08.054Z,980.59
2019-04-07T04:03:08.722Z,980.61
2019-04-07T04:04:07.872Z,980.52
2019-04-07T04:05:07.906Z,980.56
2019-04-07T04:06:09.001Z,980.60
2019-04-07T04:07:20.229Z,980.60
2019-04-07T04:08:09.448Z,980.58
2019-04-07T04:09:08.274Z,980.59
2019-04-07T04:10:08.429Z,980.58
2019-04-07T04:11:07.817Z,980.64
2019-04-07T04:12:08.498Z,980.64
2019-04-07T04:13:07.778Z,980.64
2019-04-07T04:14:08.009Z,980.62
2019-04-07T04:15:08.834Z,980.66
2019-04-07T04:16:08.016Z,980.65
2019-04-07T04:17:08.245Z,980.62
2019-04-07T04:18:07.726Z,980.63
2019-04-07T04:19:08.266Z,980.65
2019-04-07T04:20:08.364Z,980.63
2019-04-07T04:21:07.686Z,980.64
2019-04-07T04:22:07.690Z,980.62
2019-04-07T04:23:07.850Z,980.60
2019-04-07T04:24:08.308Z,980.65
2019-04-07T04:25:08.662Z,980.65
2019-04-07T04:26:08.303Z,980.67
2019-04-07T04:27:08.583Z,980.68
2019-04-07T04:28:07.878Z,980.69
2019-04-07T04:29:08.317Z,980.65
2019-04-07T04:30:07.618Z,980.61
2019-04-07T04:31:07.618Z,980.69
2019-04-07T04:32:07.697Z,980.62
2019-04-07T04:33:08.006Z,980.68
2019-04-07T04:34:07.552Z,980.74
2019-04-07T04:35:08.400Z,980.73
2019-04-07T04:36:08.082Z,980.72
2019-04-07T04:37:08.071Z,980.77
2019-04-07T04:38:08.033Z,980.75
2019-04-07T04:39:08.256Z,980.76
2019-04-07T04:40:07.587Z,980.80
2019-04-07T04:41:07.468Z,980.83
2019-04-07T04:42:08.384Z,980.84
2019-04-07T04:43:07.468Z,980.78
2019-04-07T04:44:07.462Z,980.80
2019-04-07T04:45:08.285Z,980.88
2019-04-07T04:46:09.972Z,980.87
2019-04-07T04:47:08.080Z,980.91
2019-04-07T04:48:07.404Z,980.91
2019-04-07T04:49:07.713Z,980.95
2019-04-07T04:50:08.141Z,980.92
2019-04-07T04:51:07.418Z,980.91
2019-04-07T04:52:07.344Z,980.92
2019-04-07T04:53:09.241Z,980.91
2019-04-07T04:54:08.253Z,980.93
2019-04-07T04:55:07.855Z,980.97
2019-04-07T04:56:07.646Z,980.97
2019-04-07T04:57:09.176Z,980.96
2019-04-07T04:58:07.347Z,981.03
2019-04-07T04:59:07.535Z,981.00
2019-04-07T05:00:07.403Z,981.02
2019-04-07T05:01:07.273Z,981.02
2019-04-07T05:02:07.790Z,981.05
2019-04-07T05:03:07.265Z,981.06
2019-04-07T05:04:07.466Z,981.01
2019-04-07T05:05:09.228Z,981.11
2019-04-07T05:06:07.805Z,981.04
2019-04-07T05:07:07.551Z,981.08
2019-04-07T05:08:07.191Z,981.11
2019-04-07T05:09:07.171Z,981.09
2019-04-07T05:10:08.004Z,981.13
2019-04-07T05:11:07.844Z,981.13
2019-04-07T05:12:07.131Z,981.12
2019-04-07T05:13:07.581Z,981.15
2019-04-07T05:14:07.189Z,981.19
2019-04-07T05:15:07.091Z,981.18
2019-04-07T05:16:07.156Z,981.22
2019-04-07T05:17:07.397Z,981.15
2019-04-07T05:18:07.065Z,981.16
2019-04-07T05:19:07.044Z,981.19
2019-04-07T05:20:07.034Z,981.22
2019-04-07T05:21:07.045Z,981.19
2019-04-07T05:22:07.150Z,981.27
2019-04-07T05:23:07.715Z,981.28
2019-04-07T05:24:06.983Z,981.27
2019-04-07T05:25:07.109Z,981.19
2019-04-07T05:26:07.050Z,981.26
2019-04-07T05:27:07.403Z,981.27
2019-04-07T05:28:06.943Z,981.24
2019-04-07T05:29:06.955Z,981.24
2019-04-07T05:30:07.687Z,981.27
2019-04-07T05:31:07.372Z,981.28
2019-04-07T05:32:06.972Z,981.24
2019-04-07T05:33:06.891Z,981.30
2019-04-07T05:34:07.396Z,981.25
2019-04-07T05:35:07.703Z,981.26
2019-04-07T05:36:06.989Z,981.23
2019-04-07T05:37:07.477Z,981.30
2019-04-07T05:38:08.247Z,981.30
2019-04-07T05:39:07.440Z,981.32
2019-04-07T05:40:06.828Z,981.37
2019-04-07T05:41:07.559Z,981.32
2019-04-07T05:42:07.041Z,981.32
2019-04-07T05:43:07.188Z,981.36
2019-04-07T05:44:06.775Z,981.32
2019-04-07T05:45:06.770Z,981.36
2019-04-07T05:46:08.014Z,981.42
2019-04-07T05:47:07.122Z,981.40
2019-04-07T05:48:06.755Z,981.40
2019-04-07T05:49:06.722Z,981.44
2019-04-07T05:50:06.730Z,981.44
2019-04-07T05:51:07.244Z,981.46
2019-04-07T05:52:06.814Z,981.49
2019-04-07T05:53:11.000Z,981.44
2019-04-07T05:54:08.109Z,981.45
2019-04-07T05:55:06.652Z,981.51
2019-04-07T05:56:06.661Z,981.49
2019-04-07T05:57:06.627Z,981.64
2019-04-07T05:58:08.341Z,981.54
2019-04-07T05:59:09.824Z,981.59
2019-04-07T06:00:07.596Z,981.58
2019-04-07T06:01:06.608Z,981.61
2019-04-07T06:02:06.885Z,981.61
2019-04-07T06:03:08.484Z,981.60
2019-04-07T06:04:06.679Z,981.63
2019-04-07T06:05:06.660Z,981.61
2019-04-07T06:06:06.561Z,981.62
2019-04-07T06:07:07.053Z,981.59
2019-04-07T06:08:23.680Z,981.57
2019-04-07T06:09:08.014Z,981.56
2019-04-07T06:10:06.511Z,981.58
2019-04-07T06:11:06.534Z,981.56
2019-04-07T06:12:09.637Z,981.57
2019-04-07T06:13:06.465Z,981.54
2019-04-07T06:14:07.285Z,981.60
2019-04-07T06:15:06.427Z,981.66
2019-04-07T06:16:06.450Z,981.55
2019-04-07T06:17:06.535Z,981.66
2019-04-07T06:18:06.408Z,981.59
2019-04-07T06:19:08.132Z,981.58
2019-04-07T06:20:06.831Z,981.52
2019-04-07T06:21:07.649Z,981.51
2019-04-07T06:22:07.641Z,981.52
2019-04-07T06:23:06.381Z,981.52
2019-04-07T06:24:06.370Z,981.60
2019-04-07T06:25:07.078Z,981.58
2019-04-07T06:26:09.978Z,981.55
2019-04-07T06:27:06.313Z,981.62
2019-04-07T06:28:07.107Z,981.55
2019-04-07T06:29:06.951Z,981.57
2019-04-07T06:30:06.266Z,981.60
2019-04-07T06:31:06.616Z,981.67
2019-04-07T06:32:09.161Z,981.69
2019-04-07T06:33:07.351Z,981.59
2019-04-07T06:34:08.178Z,981.56
2019-04-07T06:35:06.220Z,981.59
2019-04-07T06:36:06.226Z,981.62
2019-04-07T06:37:06.858Z,981.57
2019-04-07T06:38:07.832Z,981.67
2019-04-07T06:39:06.211Z,981.65
2019-04-07T06:40:06.206Z,981.68
2019-04-07T06:41:06.230Z,981.71
2019-04-07T06:42:06.149Z,981.70
2019-04-07T06:43:06.648Z,981.69
2019-04-07T06:44:13.058Z,981.73
2019-04-07T06:45:07.125Z,981.74
2019-04-07T06:46:06.154Z,981.71
2019-04-07T06:47:06.533Z,981.69
2019-04-07T06:48:08.231Z,981.77
2019-04-07T06:49:07.021Z,981.76
2019-04-07T06:50:06.065Z,981.78
2019-04-07T06:51:06.110Z,981.81
2019-04-07T06:52:06.044Z,981.77
2019-04-07T06:53:10.687Z,981.81
2019-04-07T06:54:07.013Z,981.77
2019-04-07T06:55:06.697Z,981.84
2019-04-07T06:56:06.076Z,981.76
2019-04-07T06:57:06.441Z,981.79
2019-04-07T06:58:08.260Z,981.82
2019-04-07T06:59:05.959Z,981.77
2019-04-07T07:00:08.223Z,981.80
2019-04-07T07:01:06.747Z,981.81
2019-04-07T07:02:07.170Z,981.88
2019-04-07T07:03:06.164Z,981.80
2019-04-07T07:04:09.368Z,981.80
2019-04-07T07:05:06.916Z,981.81
2019-04-07T07:06:05.933Z,981.87
2019-04-07T07:07:06.525Z,981.85
2019-04-07T07:08:06.270Z,981.90
2019-04-07T07:09:06.247Z,981.89
2019-04-07T07:10:06.531Z,981.90
2019-04-07T07:11:07.918Z,981.86
2019-04-07T07:12:06.161Z,981.91
2019-04-07T07:13:11.001Z,981.95
2019-04-07T07:14:07.809Z,982.01
2019-04-07T07:15:05.815Z,981.93
2019-04-07T07:16:09.595Z,981.97
2019-04-07T07:17:07.496Z,981.97
2019-04-07T07:18:05.770Z,981.92
2019-04-07T07:19:06.399Z,982.01
2019-04-07T07:20:06.663Z,981.98
2019-04-07T07:21:05.789Z,981.98
2019-04-07T07:22:10.069Z,981.99
2019-04-07T07:23:07.474Z,981.99
2019-04-07T07:24:05.906Z,982.00
2019-04-07T07:25:05.717Z,981.94
2019-04-07T07:26:06.061Z,981.93
2019-04-07T07:27:08.520Z,981.98
2019-04-07T07:28:07.593Z,981.98
2019-04-07T07:29:06.891Z,981.97
2019-04-07T07:30:05.691Z,981.98
2019-04-07T07:31:05.728Z,982.00
2019-04-07T07:32:06.412Z,981.93
2019-04-07T07:33:08.840Z,982.00
2019-04-07T07:34:09.306Z,981.98
2019-04-07T07:35:06.291Z,981.99
2019-04-07T07:36:05.594Z,981.96
2019-04-07T07:37:05.642Z,981.96
2019-04-07T07:38:05.982Z,981.92
2019-04-07T07:39:10.199Z,981.91
2019-04-07T07:40:07.896Z,981.93
2019-04-07T07:41:06.289Z,981.95
2019-04-07T07:42:05.597Z,981.95
2019-04-07T07:43:05.595Z,981.96
2019-04-07T07:44:08.451Z,981.91
2019-04-07T07:45:08.097Z,981.96
2019-04-07T07:46:05.630Z,981.97
2019-04-07T07:47:05.536Z,981.93
2019-04-07T07:48:05.496Z,981.99
2019-04-07T07:49:06.038Z,982.00
2019-04-07T07:50:07.742Z,981.95
2019-04-07T07:51:07.158Z,981.95
2019-04-07T07:52:06.086Z,982.00
2019-04-07T07:53:05.799Z,982.03
2019-04-07T07:54:05.624Z,981.97
2019-04-07T07:55:05.832Z,982.02
2019-04-07T07:56:09.629Z,982.00
2019-04-07T07:57:06.868Z,982.01
2019-04-07T07:58:05.492Z,982.08
2019-04-07T07:59:06.120Z,982.03
2019-04-07T08:00:07.092Z,982.02
2019-04-07T08:01:05.508Z,982.02
2019-04-07T08:02:05.399Z,982.09
2019-04-07T08:03:05.940Z,982.01
2019-04-07T08:04:06.188Z,982.05
2019-04-07T08:05:05.347Z,982.15
2019-04-07T08:06:08.209Z,982.04
2019-04-07T08:07:05.487Z,982.11
2019-04-07T08:08:05.829Z,982.10
2019-04-07T08:09:11.936Z,982.11
2019-04-07T08:10:06.273Z,982.14
2019-04-07T08:11:05.559Z,982.13
2019-04-07T08:12:05.311Z,981.99
2019-04-07T08:13:07.701Z,982.09
2019-04-07T08:14:05.294Z,982.03
2019-04-07T08:15:05.881Z,982.09
2019-04-07T08:16:05.258Z,981.98
2019-04-07T08:17:05.248Z,982.08
2019-04-07T08:18:08.135Z,982.06
2019-04-07T08:19:09.022Z,982.08
2019-04-07T08:20:05.679Z,982.12
2019-04-07T08:21:05.571Z,982.07
2019-04-07T08:22:07.626Z,982.11
2019-04-07T08:23:05.372Z,982.09
2019-04-07T08:24:05.177Z,982.09
2019-04-07T08:25:05.309Z,982.08
2019-04-07T08:26:05.115Z,982.05
2019-04-07T08:27:05.214Z,982.09
2019-04-07T08:28:05.118Z,982.03
2019-04-07T08:29:06.827Z,982.08
2019-04-07T08:30:09.943Z,982.11
2019-04-07T08:31:06.554Z,982.07
2019-04-07T08:32:05.423Z,982.03
2019-04-07T08:33:05.078Z,982.04
2019-04-07T08:34:05.029Z,982.04
2019-04-07T08:35:05.747Z,982.06
2019-04-07T08:36:09.681Z,982.09
2019-04-07T08:37:06.093Z,982.08
2019-04-07T08:38:05.695Z,982.03
2019-04-07T08:39:05.052Z,982.14
2019-04-07T08:40:07.220Z,982.16
2019-04-07T08:41:08.190Z,982.08
2019-04-07T08:42:09.769Z,982.07
2019-04-07T08:43:06.119Z,982.03
2019-04-07T08:44:04.958Z,982.10
2019-04-07T08:45:05.654Z,982.07
2019-04-07T08:46:05.995Z,982.09
2019-04-07T08:47:04.967Z,982.14
2019-04-07T08:48:05.162Z,982.15
2019-04-07T08:49:04.896Z,982.22
2019-04-07T08:50:04.893Z,982.19
2019-04-07T08:51:04.869Z,982.19
2019-04-07T08:52:09.079Z,982.18
2019-04-07T08:53:05.862Z,982.14
2019-04-07T08:54:05.830Z,982.13
2019-04-07T08:55:05.040Z,982.13
2019-04-07T08:56:06.841Z,982.13
2019-04-07T08:57:05.686Z,982.12
2019-04-07T08:58:05.871Z,982.10
2019-04-07T08:59:07.891Z,982.16
2019-04-07T09:00:06.243Z,982.09
2019-04-07T09:01:05.343Z,982.20
2019-04-07T09:02:05.449Z,982.23
2019-04-07T09:03:11.095Z,982.16
2019-04-07T09:04:06.626Z,982.12
2019-04-07T09:05:05.370Z,982.16
2019-04-07T09:06:04.830Z,982.16
2019-04-07T09:07:05.196Z,982.11
2019-04-07T09:08:06.041Z,982.12
2019-04-07T09:09:07.149Z,982.14
2019-04-07T09:10:04.710Z,982.22
2019-04-07T09:11:04.728Z,982.16
2019-04-07T09:12:04.865Z,982.13
2019-04-07T09:13:07.749Z,982.21
2019-04-07T09:14:06.377Z,982.21
2019-04-07T09:15:05.294Z,982.10
2019-04-07T09:16:04.739Z,982.18
2019-04-07T09:17:04.740Z,982.07
2019-04-07T09:18:04.621Z,982.14
2019-04-07T09:19:06.911Z,982.14
2019-04-07T09:20:08.496Z,982.07
2019-04-07T09:21:05.586Z,982.11
2019-04-07T09:22:04.617Z,982.14
2019-04-07T09:23:06.630Z,982.27
2019-04-07T09:24:05.033Z,982.14
2019-04-07T09:25:08.474Z,982.13
2019-04-07T09:26:05.625Z,982.28
2019-04-07T09:27:04.544Z,982.20
2019-04-07T09:28:04.579Z,982.17
2019-04-07T09:29:05.133Z,982.12
2019-04-07T09:30:07.637Z,982.23
2019-04-07T09:31:04.601Z,982.22
2019-04-07T09:32:04.495Z,982.16
2019-04-07T09:33:04.454Z,982.19
2019-04-07T09:34:04.443Z,982.21
2019-04-07T09:35:07.050Z,982.22
2019-04-07T09:36:04.440Z,982.16
2019-04-07T09:37:04.506Z,982.19
2019-04-07T09:38:04.395Z,982.24
2019-04-07T09:39:04.408Z,982.16
2019-04-07T09:40:05.571Z,982.14
2019-04-07T09:41:04.389Z,982.16
2019-04-07T09:42:04.412Z,982.15
2019-04-07T09:43:05.345Z,982.17
2019-04-07T09:44:05.210Z,982.12
2019-04-07T09:45:07.447Z,982.16
2019-04-07T09:46:09.318Z,982.19
2019-04-07T09:47:05.316Z,982.17
2019-04-07T09:48:04.344Z,982.32
2019-04-07T09:49:04.593Z,982.23
2019-04-07T09:50:04.880Z,982.25
2019-04-07T09:51:07.133Z,982.15
2019-04-07T09:52:04.300Z,982.25
2019-04-07T09:53:04.249Z,982.24
2019-04-07T09:54:04.241Z,982.19
2019-04-07T09:55:04.503Z,982.22
2019-04-07T09:56:04.884Z,982.18
2019-04-07T09:57:06.982Z,982.17
2019-04-07T09:58:07.964Z,982.21
2019-04-07T09:59:05.162Z,982.26
2019-04-07T10:00:06.711Z,982.19
2019-04-07T10:01:06.164Z,982.25
2019-04-07T10:02:06.281Z,982.15
2019-04-07T10:03:06.757Z,982.19
2019-04-07T10:04:07.114Z,982.22
2019-04-07T10:05:04.108Z,982.18
2019-04-07T10:06:04.163Z,982.16
2019-04-07T10:07:04.747Z,982.17
2019-04-07T10:08:04.384Z,982.16
2019-04-07T10:09:04.122Z,982.21
2019-04-07T10:10:10.793Z,982.25
2019-04-07T10:11:05.346Z,982.18
2019-04-07T10:12:04.820Z,982.17
2019-04-07T10:13:04.071Z,982.21
2019-04-07T10:14:04.449Z,982.17
2019-04-07T10:15:04.028Z,982.16
2019-04-07T10:16:07.699Z,982.24
2019-04-07T10:17:04.015Z,982.18
2019-04-07T10:18:04.161Z,982.22
2019-04-07T10:19:03.980Z,982.15
2019-04-07T10:20:04.976Z,982.31
2019-04-07T10:21:03.958Z,982.23
2019-04-07T10:22:03.970Z,982.21
2019-04-07T10:23:04.045Z,982.32
2019-04-07T10:24:03.960Z,982.23
2019-04-07T10:25:04.424Z,982.27
2019-04-07T10:26:04.136Z,982.31
2019-04-07T10:27:03.908Z,982.25
2019-04-07T10:28:07.210Z,982.28
2019-04-07T10:29:04.873Z,982.25
2019-04-07T10:30:04.595Z,982.30
2019-04-07T10:31:04.725Z,982.28
2019-04-07T10:32:04.510Z,982.27
2019-04-07T10:33:03.945Z,982.31
2019-04-07T10:34:03.869Z,982.27
2019-04-07T10:35:03.810Z,982.27
2019-04-07T10:36:03.827Z,982.30
2019-04-07T10:37:04.957Z,982.22
2019-04-07T10:38:03.998Z,982.23
2019-04-07T10:39:04.264Z,982.24
2019-04-07T10:40:08.060Z,982.28
2019-04-07T10:41:05.602Z,982.25
2019-04-07T10:42:04.706Z,982.30
2019-04-07T10:43:04.150Z,982.23
2019-04-07T10:44:03.873Z,982.22
2019-04-07T10:45:03.754Z,982.29
2019-04-07T10:46:03.722Z,982.25
2019-04-07T10:47:03.829Z,982.23
2019-04-07T10:48:03.707Z,982.26
2019-04-07T10:49:04.407Z,982.22
2019-04-07T10:50:07.033Z,982.17
2019-04-07T10:51:04.397Z,982.20
2019-04-07T10:52:04.421Z,982.18
2019-04-07T10:53:08.249Z,982.12
2019-04-07T10:54:03.788Z,982.14
2019-04-07T10:55:03.675Z,982.14
2019-04-07T10:56:03.761Z,982.14
2019-04-07T10:57:04.292Z,982.09
2019-04-07T10:58:04.289Z,982.16
2019-04-07T10:59:04.360Z,982.21
2019-04-07T11:00:03.569Z,982.16
2019-04-07T11:01:04.137Z,982.20
2019-04-07T11:02:03.577Z,982.13
2019-04-07T11:03:04.765Z,982.22
2019-04-07T11:04:03.895Z,982.11
2019-04-07T11:05:03.517Z,982.11
2019-04-07T11:06:03.934Z,982.11
2019-04-07T11:07:04.183Z,982.05
2019-04-07T11:08:03.556Z,982.18
2019-04-07T11:09:03.653Z,982.06
2019-04-07T11:10:03.754Z,982.08
2019-04-07T11:11:03.528Z,982.08
2019-04-07T11:12:03.462Z,982.11
2019-04-07T11:13:03.473Z,982.09
2019-04-07T11:14:03.457Z,982.03
2019-04-07T11:15:03.438Z,982.00
2019-04-07T11:16:03.417Z,982.03
2019-04-07T11:17:03.653Z,981.95
2019-04-07T11:18:04.113Z,981.98
2019-04-07T11:19:03.388Z,981.93
2019-04-07T11:20:03.397Z,981.97
2019-04-07T11:21:03.460Z,981.98
2019-04-07T11:22:03.351Z,981.90
2019-04-07T11:23:03.358Z,981.88
2019-04-07T11:24:03.992Z,981.83
2019-04-07T11:25:03.594Z,981.96
2019-04-07T11:26:03.607Z,981.95
2019-04-07T11:27:03.296Z,981.89
2019-04-07T11:28:03.329Z,981.90
2019-04-07T11:29:03.279Z,981.92
2019-04-07T11:30:03.860Z,981.94
2019-04-07T11:31:03.843Z,981.99
2019-04-07T11:32:03.244Z,982.04
2019-04-07T11:33:03.567Z,981.94
2019-04-07T11:34:03.378Z,981.89
2019-04-07T11:35:03.850Z,981.86
2019-04-07T11:36:04.007Z,981.90
2019-04-07T11:37:03.193Z,981.90
2019-04-07T11:38:03.215Z,981.90
2019-04-07T11:39:03.164Z,981.99
2019-04-07T11:40:04.639Z,981.95
2019-04-07T11:41:03.469Z,981.87
2019-04-07T11:42:04.774Z,981.86
2019-04-07T11:43:03.343Z,981.91
2019-04-07T11:44:03.179Z,981.94
2019-04-07T11:45:03.267Z,981.82
2019-04-07T11:46:03.469Z,981.90
2019-04-07T11:47:03.762Z,981.95
2019-04-07T11:48:03.455Z,981.90
2019-04-07T11:49:03.075Z,981.92
2019-04-07T11:50:03.793Z,981.84
2019-04-07T11:51:03.310Z,981.87
2019-04-07T11:52:03.658Z,981.93
2019-04-07T11:53:03.857Z,981.83
2019-04-07T11:54:03.229Z,981.92
2019-04-07T11:55:03.026Z,981.91
2019-04-07T11:56:06.159Z,981.93
2019-04-07T11:57:04.458Z,981.86
2019-04-07T11:58:13.525Z,981.88
2019-04-07T11:59:06.735Z,981.90
2019-04-07T12:00:02.967Z,981.88
2019-04-07T12:01:03.574Z,981.82
2019-04-07T12:02:03.657Z,981.89
2019-04-07T12:03:03.135Z,981.93
2019-04-07T12:04:02.926Z,981.92
2019-04-07T12:05:03.262Z,981.91
2019-04-07T12:06:02.891Z,981.91
2019-04-07T12:07:03.547Z,981.87
2019-04-07T12:08:02.927Z,981.92
2019-04-07T12:09:03.309Z,981.86
2019-04-07T12:10:03.065Z,981.90
2019-04-07T12:11:05.934Z,981.92
2019-04-07T12:12:03.626Z,981.90
2019-04-07T12:13:03.629Z,981.89
2019-04-07T12:14:02.885Z,981.90
2019-04-07T12:15:02.816Z,981.97
2019-04-07T12:16:03.632Z,981.95
2019-04-07T12:17:06.949Z,982.00
2019-04-07T12:18:06.536Z,981.97
2019-04-07T12:19:03.336Z,981.90
2019-04-07T12:20:03.097Z,981.91
2019-04-07T12:21:05.270Z,981.91
2019-04-07T12:22:05.505Z,981.89
2019-04-07T12:23:03.981Z,981.88
2019-04-07T12:24:03.380Z,981.97
2019-04-07T12:25:04.447Z,981.86
2019-04-07T12:26:05.131Z,981.94
2019-04-07T12:27:03.526Z,981.93
2019-04-07T12:28:03.476Z,981.90